Time;durP1;ratioP1;P1;durP2;ratioP2;P2;SDS_P1;SDS_P2;PMS_P1;PMS_P2;Temp;Humidity;BMP_temperature;BMP_pressure;BME280_temperature;BME280_humidity;BME280_pressure;Samples;Min_cycle;Max_cycle;Signal;HPM_P1;HPM_P2
2021/05/13 00:00:47;;;;;;;24.80;20.92;;;;;;;10.92;79.63;100635.63;5037084;28;20479;-64
2021/05/13 00:03:14;;;;;;;24.55;20.10;;;;;;;10.93;79.40;100632.13;5044850;28;20072;-65
2021/05/13 00:05:40;;;;;;;23.45;19.70;;;;;;;10.75;79.28;100633.38;5045680;28;20045;-64
2021/05/13 00:08:07;;;;;;;26.80;19.45;;;;;;;10.75;79.65;100624.75;5045747;28;20099;-65
2021/05/13 00:10:33;;;;;;;25.77;20.52;;;;;;;10.78;79.57;100629.88;5040338;28;20059;-65
2021/05/13 00:13:00;;;;;;;21.40;18.95;;;;;;;10.76;80.00;100624.69;5039927;28;20049;-65
2021/05/13 00:15:29;;;;;;;24.27;21.48;;;;;;;10.71;80.06;100624.81;5040517;28;20057;-64
2021/05/13 00:17:56;;;;;;;26.33;21.50;;;;;;;10.66;79.87;100623.19;5035025;28;20476;-64
2021/05/13 00:20:25;;;;;;;28.23;23.15;;;;;;;10.68;80.11;100621.41;5049366;28;20514;-65
2021/05/13 00:22:51;;;;;;;25.40;21.10;;;;;;;10.72;80.00;100617.88;5039061;28;20056;-64
2021/05/13 00:25:18;;;;;;;25.70;21.60;;;;;;;10.77;79.65;100617.78;5038742;28;20100;-64
2021/05/13 00:27:44;;;;;;;25.48;20.27;;;;;;;10.78;79.47;100615.13;5044186;28;20484;-64
2021/05/13 00:30:11;;;;;;;24.75;21.25;;;;;;;10.72;79.26;100610.91;5043800;28;20049;-65
2021/05/13 00:32:37;;;;;;;25.92;19.35;;;;;;;10.63;79.59;100607.66;5037028;28;20045;-65
2021/05/13 00:35:04;;;;;;;25.27;20.20;;;;;;;10.64;80.21;100607.63;5036723;28;20179;-64
2021/05/13 00:37:31;;;;;;;24.25;19.08;;;;;;;10.66;79.54;100604.97;5036219;28;20048;-66
2021/05/13 00:39:57;;;;;;;21.33;18.92;;;;;;;10.63;79.26;100605.06;5038981;28;20103;-65
2021/05/13 00:42:23;;;;;;;25.38;20.65;;;;;;;10.57;79.60;100603.44;5036123;28;20068;-64
2021/05/13 00:44:49;;;;;;;27.23;22.10;;;;;;;10.55;79.63;100600.84;5036172;28;20144;-65
2021/05/13 00:47:15;;;;;;;25.50;21.50;;;;;;;10.55;80.29;100606.06;5039671;28;20049;-65
2021/05/13 00:49:41;;;;;;;26.08;21.33;;;;;;;10.61;80.42;100604.22;5035221;28;20049;-65
2021/05/13 00:52:08;;;;;;;25.13;20.17;;;;;;;10.58;79.90;100598.19;5043246;28;20138;-65
2021/05/13 00:54:36;;;;;;;26.25;21.92;;;;;;;10.51;80.20;100599.22;5040733;28;20045;-65
2021/05/13 00:57:02;;;;;;;24.02;20.55;;;;;;;10.55;80.10;100603.47;5036600;28;20054;-64
2021/05/13 00:59:29;;;;;;;24.25;21.17;;;;;;;10.57;80.17;100601.69;5037782;28;20109;-65
2021/05/13 01:01:55;;;;;;;20.52;17.90;;;;;;;10.46;80.10;100603.66;5037784;28;20083;-65
2021/05/13 01:04:22;;;;;;;20.23;16.77;;;;;;;10.38;80.12;100609.00;5044839;28;20057;-65
2021/05/13 01:06:50;;;;;;;20.23;17.38;;;;;;;10.27;80.47;100603.16;5039698;28;20047;-64
2021/05/13 01:09:21;;;;;;;21.45;16.63;;;;;;;10.27;80.35;100609.22;5037966;28;20041;-65
2021/05/13 01:11:50;;;;;;;21.05;18.80;;;;;;;10.27;80.64;100606.59;5035221;28;20049;-64
2021/05/13 01:14:19;;;;;;;21.27;17.92;;;;;;;10.26;80.83;100604.88;5030769;28;20254;-65
2021/05/13 01:16:56;;;;;;;22.73;18.92;;;;;;;10.27;80.80;100603.16;5039386;28;20470;-65
2021/05/13 01:19:22;;;;;;;22.08;18.70;;;;;;;10.31;81.29;100598.75;5046235;28;20106;-64
2021/05/13 01:21:48;;;;;;;25.23;19.67;;;;;;;10.27;81.21;100595.38;5045058;28;21815;-64
2021/05/13 01:24:14;;;;;;;23.77;19.60;;;;;;;10.20;81.44;100599.81;5036887;28;20057;-64
2021/05/13 01:26:43;;;;;;;24.85;19.80;;;;;;;10.14;81.51;100594.72;5035118;28;20605;-66
2021/05/13 01:29:10;;;;;;;27.85;22.60;;;;;;;10.08;80.96;100597.47;5042674;28;20083;-65
2021/05/13 01:31:37;;;;;;;27.67;21.75;;;;;;;10.13;80.77;100589.56;5034807;28;20495;-65
2021/05/13 01:34:05;;;;;;;25.13;22.05;;;;;;;10.02;81.56;100595.00;5027366;28;20575;-65
2021/05/13 01:36:31;;;;;;;25.50;20.58;;;;;;;10.07;81.45;100595.75;5043597;28;20061;-65
2021/05/13 01:38:58;;;;;;;20.25;16.85;;;;;;;10.03;81.29;100591.50;5041873;28;20072;-66
2021/05/13 01:41:24;;;;;;;19.55;15.38;;;;;;;10.00;80.95;100587.22;5040206;28;20955;-65
2021/05/13 01:43:50;;;;;;;17.65;15.80;;;;;;;10.02;80.61;100590.63;5038833;28;20130;-65
2021/05/13 01:46:16;;;;;;;18.05;15.07;;;;;;;9.99;80.57;100579.44;5038754;28;20494;-66
2021/05/13 01:48:42;;;;;;;18.88;15.98;;;;;;;9.94;80.46;100579.53;5035389;28;22053;-65
2021/05/13 01:51:08;;;;;;;19.15;16.35;;;;;;;9.98;80.58;100582.94;5040291;28;20513;-65
2021/05/13 01:53:34;;;;;;;19.60;16.52;;;;;;;9.93;80.92;100580.44;5038587;28;20041;-66
2021/05/13 01:56:01;;;;;;;19.88;16.30;;;;;;;9.92;80.87;100576.97;5038612;28;20143;-66
2021/05/13 01:58:27;;;;;;;19.67;15.90;;;;;;;9.85;80.63;100579.72;5031564;28;20053;-63
2021/05/13 02:00:53;;;;;;;20.35;14.85;;;;;;;9.78;80.49;100577.22;5040263;28;20056;-65
2021/05/13 02:03:19;;;;;;;17.63;15.32;;;;;;;9.87;80.45;100575.34;5038563;28;20053;-64
2021/05/13 02:05:45;;;;;;;44.70;18.25;;;;;;;9.74;80.60;100583.38;5047017;28;20050;-65
2021/05/13 02:08:11;;;;;;;63.90;21.45;;;;;;;9.67;81.94;100581.78;5038356;28;20052;-66
2021/05/13 02:10:37;;;;;;;43.75;20.17;;;;;;;9.62;83.21;100570.59;5034604;28;20041;-65
2021/05/13 02:13:04;;;;;;;56.58;20.77;;;;;;;9.62;83.51;100576.66;5033751;28;20236;-62
2021/05/13 02:15:30;;;;;;;105.43;21.38;;;;;;;9.56;84.16;100570.72;5042690;28;20056;-64
2021/05/13 02:17:56;;;;;;;195.43;23.38;;;;;;;9.43;84.61;100572.69;5040996;28;20558;-64
2021/05/13 02:20:23;;;;;;;56.10;24.40;;;;;;;9.29;85.44;100571.16;5041283;28;20045;-66
2021/05/13 02:22:50;;;;;;;103.25;22.45;;;;;;;9.26;85.95;100567.75;5037678;28;20076;-65
2021/05/13 02:25:16;;;;;;;147.55;21.42;;;;;;;9.24;86.81;100564.34;5033894;28;20041;-64
2021/05/13 02:27:42;;;;;;;49.50;19.85;;;;;;;9.15;87.13;100565.31;5042723;28;20148;-67
2021/05/13 02:30:12;;;;;;;91.72;21.23;;;;;;;9.10;86.75;100556.78;5034387;28;20782;-65
2021/05/13 02:32:38;;;;;;;89.18;19.75;;;;;;;9.13;87.32;100549.78;5036310;28;20049;-65
2021/05/13 02:35:05;;;;;;;64.72;18.70;;;;;;;9.21;87.04;100560.06;5045707;28;20067;-64
2021/05/13 02:37:31;;;;;;;59.53;19.30;;;;;;;9.14;86.95;100553.22;5037910;28;20041;-64
2021/05/13 02:39:57;;;;;;;166.98;20.73;;;;;;;9.03;86.93;100556.84;5034461;28;20139;-65
2021/05/13 02:42:23;;;;;;;33.58;20.58;;;;;;;9.05;87.73;100550.78;5036314;28;20053;-65
2021/05/13 02:44:49;;;;;;;162.18;20.48;;;;;;;8.97;87.86;100556.13;5034930;28;20525;-65
2021/05/13 02:47:16;;;;;;;51.08;18.65;;;;;;;9.02;87.92;100551.69;5036815;28;20050;-64
2021/05/13 02:49:42;;;;;;;95.10;21.95;;;;;;;8.97;88.00;100549.19;5044376;28;20071;-65
2021/05/13 02:52:09;;;;;;;29.98;19.80;;;;;;;9.02;87.30;100541.31;5047408;28;20037;-66
2021/05/13 02:54:35;;;;;;;45.67;20.33;;;;;;;9.11;88.07;100542.91;5038286;28;20530;-66
2021/05/13 02:57:01;;;;;;;35.80;19.02;;;;;;;9.18;86.90;100536.75;5042926;28;20056;-66
2021/05/13 02:59:32;;;;;;;28.13;17.33;;;;;;;9.25;87.22;100534.91;5038887;28;20124;-65
2021/05/13 03:01:58;;;;;;;64.03;18.05;;;;;;;9.32;86.22;100531.31;5035433;28;20054;-64
2021/05/13 03:04:25;;;;;;;38.67;16.88;;;;;;;9.37;86.41;100528.63;5034753;28;20499;-66
2021/05/13 03:06:51;;;;;;;50.75;16.38;;;;;;;9.33;85.37;100525.25;5045588;28;20048;-66
2021/05/13 03:09:18;;;;;;;47.72;17.63;;;;;;;9.34;85.81;100529.56;5042663;28;20050;-65
2021/05/13 03:11:44;;;;;;;39.15;18.48;;;;;;;9.34;85.83;100525.19;5026095;28;20049;-66
2021/05/13 03:14:11;;;;;;;41.65;16.83;;;;;;;9.33;85.29;100530.44;5034162;28;20052;-65
2021/05/13 03:16:37;;;;;;;78.13;17.95;;;;;;;9.31;85.33;100540.84;5034692;28;20052;-65
2021/05/13 03:19:05;;;;;;;32.47;17.75;;;;;;;9.29;85.73;100546.94;5038879;28;20057;-66
2021/05/13 03:21:35;;;;;;;34.55;17.90;;;;;;;9.16;85.73;100538.50;5032490;28;20137;-66
2021/05/13 03:24:06;;;;;;;36.60;17.40;;;;;;;9.21;85.69;100539.28;5037512;28;20044;-65
2021/05/13 03:26:40;;;;;;;20.00;17.38;;;;;;;9.23;85.76;100542.72;5039194;28;20511;-66
2021/05/13 03:29:06;;;;;;;35.58;18.52;;;;;;;9.32;85.48;100550.34;5037588;28;20522;-65
2021/05/13 03:31:33;;;;;;;31.75;17.05;;;;;;;9.35;85.40;100549.44;5036424;28;20060;-65
2021/05/13 03:33:59;;;;;;;43.45;18.13;;;;;;;9.39;85.19;100548.47;5040484;28;20443;-64
2021/05/13 03:36:25;;;;;;;36.22;17.30;;;;;;;9.38;85.04;100546.81;5041686;28;20053;-65
2021/05/13 03:38:52;;;;;;;48.92;16.35;;;;;;;9.31;84.99;100545.16;5044078;28;20503;-65
2021/05/13 03:41:18;;;;;;;46.88;15.40;;;;;;;9.26;85.28;100542.66;5038175;28;20053;-65
2021/05/13 03:43:44;;;;;;;58.30;17.35;;;;;;;9.21;85.06;100541.00;5031673;28;20058;-65
2021/05/13 03:46:10;;;;;;;39.95;16.88;;;;;;;9.13;84.59;100534.22;5051952;22;20055;-65
2021/05/13 03:48:36;;;;;;;35.78;15.35;;;;;;;9.12;84.52;100534.25;5046545;28;20732;-62
2021/05/13 03:51:01;;;;;;;73.75;15.70;;;;;;;8.98;84.61;100532.72;5056503;28;20043;-65
2021/05/13 03:53:27;;;;;;;41.53;17.25;;;;;;;8.93;85.66;100534.56;5069459;28;20119;-64
2021/05/13 03:55:54;;;;;;;51.42;18.08;;;;;;;8.92;85.10;100537.16;5060875;28;20052;-63
2021/05/13 03:58:22;;;;;;;33.92;18.85;;;;;;;8.89;85.62;100537.19;5056827;28;20052;-67
2021/05/13 04:01:01;;;;;;;51.35;18.88;;;;;;;8.97;85.50;100525.81;5060362;28;20044;-65
2021/05/13 04:03:27;;;;;;;46.83;18.33;;;;;;;9.02;85.79;100526.63;5054683;28;20045;-66
2021/05/13 04:05:53;;;;;;;69.30;18.92;;;;;;;8.95;84.99;100517.22;5064803;28;20048;-66
2021/05/13 04:08:19;;;;;;;47.30;21.80;;;;;;;8.88;85.56;100525.97;5056464;28;20087;-65
2021/05/13 04:10:45;;;;;;;92.93;21.00;;;;;;;8.92;85.59;100517.28;5057255;28;20255;-65
2021/05/13 04:13:14;;;;;;;41.47;19.67;;;;;;;8.97;85.93;100517.22;5059555;28;20125;-66
2021/05/13 04:15:42;;;;;;;59.78;20.55;;;;;;;8.99;85.39;100518.88;5064974;28;20131;-66
2021/05/13 04:18:08;;;;;;;28.83;20.10;;;;;;;9.02;85.51;100511.06;5068452;28;20047;-65
2021/05/13 04:20:35;;;;;;;73.13;19.60;;;;;;;9.03;85.25;100504.13;5061375;28;20144;-66
2021/05/13 04:23:01;;;;;;;24.15;19.75;;;;;;;9.01;86.29;100505.88;5056955;28;20429;-65
2021/05/13 04:25:27;;;;;;;39.40;19.38;;;;;;;8.96;86.15;100510.31;5058147;28;20059;-65
2021/05/13 04:27:53;;;;;;;33.13;19.65;;;;;;;9.00;85.95;100496.38;5057931;28;20049;-66
2021/05/13 04:30:21;;;;;;;30.98;20.67;;;;;;;9.07;85.88;100503.19;5054469;28;20167;-65
2021/05/13 04:32:46;;;;;;;33.40;21.10;;;;;;;9.16;85.11;100503.03;5061025;28;20059;-66
2021/05/13 04:35:12;;;;;;;33.40;18.65;;;;;;;9.29;85.08;100506.28;5068249;28;20041;-65
2021/05/13 04:37:38;;;;;;;40.30;18.98;;;;;;;9.38;84.35;100499.19;5066828;28;20439;-65
2021/05/13 04:40:06;;;;;;;35.30;19.40;;;;;;;9.51;84.79;100492.91;5061386;28;20071;-66
2021/05/13 04:42:32;;;;;;;32.47;20.90;;;;;;;9.53;84.29;100493.75;5066365;28;20052;-64
2021/05/13 04:44:58;;;;;;;33.28;21.25;;;;;;;9.57;84.45;100492.78;5063230;28;20121;-65
2021/05/13 04:47:26;;;;;;;26.48;19.65;;;;;;;9.73;83.85;100497.69;5060678;28;21373;-65
2021/05/13 04:49:54;;;;;;;24.80;18.70;;;;;;;9.84;84.11;100493.13;5059952;28;20052;-65
2021/05/13 04:52:21;;;;;;;25.73;19.45;;;;;;;9.95;82.96;100493.75;5062209;28;20048;-66
2021/05/13 04:54:52;;;;;;;26.23;19.38;;;;;;;10.06;83.18;100490.09;5055837;28;20386;-66
2021/05/13 04:57:18;;;;;;;26.10;18.77;;;;;;;10.21;82.78;100487.16;5064032;28;20053;-64
2021/05/13 04:59:44;;;;;;;25.58;18.95;;;;;;;10.38;82.27;100488.56;5062749;28;20056;-64
2021/05/13 05:02:10;;;;;;;26.00;17.75;;;;;;;10.58;81.80;100491.56;5058032;28;20056;-66
2021/05/13 05:04:37;;;;;;;26.67;18.67;;;;;;;10.81;80.87;100490.19;5061613;28;20142;-66
2021/05/13 05:07:03;;;;;;;22.50;17.27;;;;;;;11.02;80.33;100487.94;5065634;28;20624;-66
2021/05/13 05:09:29;;;;;;;22.75;17.55;;;;;;;11.15;80.02;100484.09;5061929;28;20048;-66
2021/05/13 05:11:55;;;;;;;25.33;17.70;;;;;;;11.27;79.74;100485.56;5060546;28;20425;-66
2021/05/13 05:14:21;;;;;;;22.65;18.00;;;;;;;11.31;78.91;100487.16;5061038;28;20056;-68
2021/05/13 05:16:47;;;;;;;19.83;16.52;;;;;;;11.62;78.23;100485.50;5053238;28;20048;-65
2021/05/13 05:19:14;;;;;;;21.25;17.10;;;;;;;11.69;78.03;100481.81;5069870;28;20040;-62
2021/05/13 05:21:40;;;;;;;19.30;16.25;;;;;;;11.97;78.18;100476.72;5068216;28;20111;-61
2021/05/13 05:24:07;;;;;;;21.45;17.52;;;;;;;12.26;76.90;100479.34;5061403;28;20052;-65
2021/05/13 05:26:33;;;;;;;41.40;16.50;;;;;;;12.53;76.57;100468.94;5054446;28;20064;-64
2021/05/13 05:29:00;;;;;;;19.88;16.52;;;;;;;12.72;75.26;100470.09;5060901;28;20490;-62
2021/05/13 05:31:26;;;;;;;20.13;17.85;;;;;;;12.95;74.67;100475.44;5052691;28;20060;-67
2021/05/13 05:33:52;;;;;;;20.92;17.45;;;;;;;13.05;73.83;100469.00;5057035;28;20052;-60
2021/05/13 05:36:18;;;;;;;18.50;15.07;;;;;;;13.40;73.03;100466.09;5058548;28;20571;-64
2021/05/13 05:38:44;;;;;;;18.95;14.90;;;;;;;13.66;72.58;100466.03;5062653;28;20535;-63
2021/05/13 05:41:10;;;;;;;19.38;15.65;;;;;;;13.79;71.72;100462.97;5056497;28;20134;-64
2021/05/13 05:43:36;;;;;;;20.75;16.08;;;;;;;14.10;73.34;100462.66;5060125;28;20822;-65
2021/05/13 05:46:02;;;;;;;20.98;17.30;;;;;;;14.37;72.03;100464.25;5052944;28;20049;-64
2021/05/13 05:48:29;;;;;;;21.83;16.33;;;;;;;14.56;70.60;100459.97;5058938;28;20429;-63
2021/05/13 05:50:55;;;;;;;21.52;16.48;;;;;;;14.84;69.50;100468.50;5061894;28;20107;-63
2021/05/13 05:53:21;;;;;;;20.23;17.23;;;;;;;15.00;68.88;100455.63;5058621;28;20498;-67
2021/05/13 05:55:47;;;;;;;18.88;16.88;;;;;;;15.01;67.89;100454.72;5061504;28;20059;-62
2021/05/13 05:58:13;;;;;;;20.83;16.90;;;;;;;15.06;68.81;100453.59;5053705;28;20083;-62
2021/05/13 06:00:39;;;;;;;19.17;17.15;;;;;;;15.06;68.62;100452.75;5062856;28;20434;-65
2021/05/13 06:03:05;;;;;;;18.20;15.73;;;;;;;15.19;68.67;100453.94;5056907;28;20090;-64
2021/05/13 06:05:32;;;;;;;23.65;18.30;;;;;;;15.32;67.42;100453.41;5062362;28;20075;-63
2021/05/13 06:07:57;;;;;;;21.77;17.98;;;;;;;15.51;67.52;100456.03;5058150;28;20497;-64
2021/05/13 06:10:23;;;;;;;20.90;14.88;;;;;;;15.52;67.23;100463.00;5058000;28;20163;-63
2021/05/13 06:12:52;;;;;;;21.23;17.42;;;;;;;15.69;67.14;100459.63;5055546;28;20056;-64
2021/05/13 06:15:21;;;;;;;24.35;18.55;;;;;;;15.73;65.70;100463.78;5056593;28;20202;-65
2021/05/13 06:17:47;;;;;;;20.48;15.15;;;;;;;15.93;66.79;100467.31;5063126;28;20041;-63
2021/05/13 06:20:19;;;;;;;21.45;15.88;;;;;;;16.00;67.02;100466.13;5058331;28;20055;-65
2021/05/13 06:22:45;;;;;;;21.17;18.02;;;;;;;16.34;66.03;100454.03;5058358;28;20037;-64
2021/05/13 06:25:11;;;;;;;20.52;16.95;;;;;;;16.67;64.50;100450.69;5056191;28;20055;-65
2021/05/13 06:27:38;;;;;;;23.73;18.35;;;;;;;16.73;63.05;100450.38;5054869;28;20057;-63
2021/05/13 06:30:07;;;;;;;19.33;16.17;;;;;;;16.78;63.00;100445.75;5067588;28;20090;-65
2021/05/13 06:32:33;;;;;;;26.10;18.85;;;;;;;16.89;62.96;100449.63;5056544;28;20052;-64
2021/05/13 06:34:59;;;;;;;24.33;17.50;;;;;;;16.86;62.75;100449.75;5063219;28;20052;-63
2021/05/13 06:37:24;;;;;;;21.45;15.90;;;;;;;16.91;63.04;100450.41;5060797;28;20055;-63
2021/05/13 06:39:51;;;;;;;25.15;18.48;;;;;;;16.85;62.43;100448.06;5056470;28;20070;-65
2021/05/13 06:42:17;;;;;;;26.27;19.33;;;;;;;16.73;63.74;100442.50;5053478;28;20734;-63
2021/05/13 06:44:43;;;;;;;24.90;19.23;;;;;;;16.64;63.80;100442.94;5067184;28;20131;-63
2021/05/13 06:47:12;;;;;;;25.23;19.05;;;;;;;16.53;63.82;100440.00;5062314;28;20059;-63
2021/05/13 06:49:38;;;;;;;23.50;18.38;;;;;;;16.60;63.92;100444.03;5058843;28;20064;-65
2021/05/13 06:52:05;;;;;;;32.97;20.10;;;;;;;16.45;64.62;100445.66;5061193;28;20048;-64
2021/05/13 06:54:31;;;;;;;35.30;20.20;;;;;;;16.51;64.53;100449.75;5059615;28;20048;-65
2021/05/13 06:56:58;;;;;;;30.98;19.20;;;;;;;16.44;63.99;100450.03;5066485;28;20044;-64
2021/05/13 06:59:24;;;;;;;36.67;19.05;;;;;;;16.51;65.77;100447.13;5068390;28;20049;-63
2021/05/13 07:01:50;;;;;;;33.20;20.40;;;;;;;16.61;64.68;100448.38;5054325;28;20058;-64
2021/05/13 07:04:17;;;;;;;29.90;20.63;;;;;;;16.60;65.47;100438.78;5061477;28;20048;-65
2021/05/13 07:06:43;;;;;;;28.48;19.70;;;;;;;16.71;66.12;100443.50;5066169;28;20048;-64
2021/05/13 07:09:09;;;;;;;26.55;17.13;;;;;;;16.69;65.54;100435.72;5061408;28;20536;-66
2021/05/13 07:11:35;;;;;;;23.13;18.02;;;;;;;16.82;65.16;100432.47;5054232;28;20047;-66
2021/05/13 07:14:02;;;;;;;21.10;16.15;;;;;;;16.78;64.24;100424.75;5059754;28;20056;-64
2021/05/13 07:16:29;;;;;;;20.98;15.07;;;;;;;16.76;65.54;100431.84;5065099;28;20048;-64
2021/05/13 07:18:56;;;;;;;22.80;15.77;;;;;;;16.91;64.39;100438.09;5061969;28;20044;-64
2021/05/13 07:21:23;;;;;;;22.42;18.25;;;;;;;16.75;65.15;100426.69;5059373;28;20055;-64
2021/05/13 07:23:48;;;;;;;19.73;14.80;;;;;;;16.84;65.71;100438.47;5056596;28;20142;-63
2021/05/13 07:26:14;;;;;;;18.83;14.00;;;;;;;17.06;65.38;100436.50;5059708;28;20053;-65
2021/05/13 07:28:40;;;;;;;20.75;16.63;;;;;;;17.32;64.87;100429.03;5062603;28;20135;-64
2021/05/13 07:31:06;;;;;;;19.45;14.85;;;;;;;17.39;64.32;100422.53;5057079;28;20498;-64
2021/05/13 07:33:32;;;;;;;21.58;15.85;;;;;;;17.36;63.05;100432.38;5067097;28;20040;-63
2021/05/13 07:35:58;;;;;;;18.90;13.52;;;;;;;17.26;63.64;100429.38;5062034;28;20045;-64
2021/05/13 07:38:25;;;;;;;21.10;15.45;;;;;;;17.30;63.20;100436.16;5069565;28;20064;-67
2021/05/13 07:40:52;;;;;;;20.35;13.07;;;;;;;17.35;63.94;100433.31;5058197;28;20044;-64
2021/05/13 07:43:19;;;;;;;20.13;15.30;;;;;;;17.33;63.29;100432.53;5057740;28;20049;-64
2021/05/13 07:45:45;;;;;;;19.27;13.18;;;;;;;17.32;63.82;100434.28;5070658;28;20071;-64
2021/05/13 07:48:12;;;;;;;20.83;12.05;;;;;;;17.37;62.96;100424.41;5070666;28;20044;-63
2021/05/13 07:50:38;;;;;;;18.70;14.73;;;;;;;17.40;62.57;100429.50;5057323;28;22786;-63
2021/05/13 07:53:06;;;;;;;20.48;15.75;;;;;;;17.25;63.97;100427.66;5058097;28;20048;-64
2021/05/13 07:55:33;;;;;;;19.42;15.50;;;;;;;17.21;64.04;100423.50;5063881;28;20052;-63
2021/05/13 07:58:00;;;;;;;19.92;15.32;;;;;;;17.18;64.04;100426.28;5067290;28;20094;-65
2021/05/13 08:00:26;;;;;;;18.77;14.70;;;;;;;17.17;61.26;100425.41;5058878;28;20058;-63
2021/05/13 08:02:52;;;;;;;20.95;14.50;;;;;;;16.99;63.63;100423.75;5059480;28;20053;-64
2021/05/13 08:05:18;;;;;;;21.17;14.88;;;;;;;16.92;62.94;100426.66;5061417;28;20053;-62
2021/05/13 08:07:44;;;;;;;25.60;16.00;;;;;;;16.81;63.87;100415.00;5065611;28;20048;-63
2021/05/13 08:10:11;;;;;;;18.38;14.15;;;;;;;16.85;61.62;100420.03;5070410;28;20467;-64
2021/05/13 08:12:38;;;;;;;21.45;16.50;;;;;;;16.62;63.76;100413.28;5073359;28;20048;-62
2021/05/13 08:15:08;;;;;;;18.52;13.80;;;;;;;16.68;65.43;100420.88;5066669;28;20060;-58
2021/05/13 08:17:34;;;;;;;20.48;13.77;;;;;;;16.82;64.88;100420.19;5068440;28;20128;-62
2021/05/13 08:20:00;;;;;;;16.98;13.30;;;;;;;16.87;62.78;100414.69;5071956;28;20045;-63
2021/05/13 08:22:26;;;;;;;19.95;14.82;;;;;;;16.96;62.89;100413.41;5070031;28;20102;-63
2021/05/13 08:24:52;;;;;;;18.45;13.68;;;;;;;16.93;63.62;100417.91;5068717;28;20045;-64
2021/05/13 08:27:18;;;;;;;16.58;13.20;;;;;;;17.09;63.31;100412.69;5068082;28;20460;-63
2021/05/13 08:29:45;;;;;;;17.65;13.00;;;;;;;17.21;61.11;100415.63;5070605;28;20053;-63
2021/05/13 08:32:11;;;;;;;16.55;12.20;;;;;;;17.18;60.62;100411.34;5067295;28;20135;-64
2021/05/13 08:34:36;;;;;;;16.23;11.73;;;;;;;17.31;58.19;100413.34;5066028;28;20045;-63
2021/05/13 08:37:03;;;;;;;18.17;12.57;;;;;;;17.23;58.61;100419.00;5066266;28;20045;-63
2021/05/13 08:39:29;;;;;;;16.60;13.02;;;;;;;17.21;59.33;100408.56;5063546;28;20052;-63
2021/05/13 08:41:54;;;;;;;17.55;12.32;;;;;;;17.25;60.83;100410.13;5067977;28;20605;-64
2021/05/13 08:44:21;;;;;;;12.45;9.10;;;;;;;17.39;59.24;100406.75;5069540;28;20072;-64
2021/05/13 08:46:48;;;;;;;12.38;7.35;;;;;;;17.54;56.39;100407.72;5070237;28;20049;-64
2021/05/13 08:49:14;;;;;;;14.35;6.70;;;;;;;17.57;53.56;100406.69;5069894;28;20056;-63
2021/05/13 08:51:40;;;;;;;9.77;6.85;;;;;;;17.42;52.88;100404.91;5071303;28;20048;-64
2021/05/13 08:54:07;;;;;;;11.32;7.40;;;;;;;17.43;54.61;100407.44;5067315;28;20048;-64
2021/05/13 08:56:33;;;;;;;11.18;7.50;;;;;;;17.46;53.66;100402.03;5072148;28;20036;-64
2021/05/13 08:59:03;;;;;;;10.18;6.78;;;;;;;17.39;52.51;100401.50;5069853;28;20055;-63
2021/05/13 09:01:30;;;;;;;11.13;7.75;;;;;;;17.31;52.27;100398.44;5065270;28;20142;-64
2021/05/13 09:03:59;;;;;;;8.75;5.97;;;;;;;17.35;54.79;100402.59;5070965;28;20044;-64
2021/05/13 09:06:28;;;;;;;9.18;5.90;;;;;;;17.50;54.02;100403.56;5070560;28;20514;-64
2021/05/13 09:08:55;;;;;;;10.57;5.50;;;;;;;17.67;51.20;100388.63;5067780;28;20077;-65
2021/05/13 09:11:21;;;;;;;10.18;5.22;;;;;;;17.68;51.54;100388.56;5070633;28;20053;-64
2021/05/13 09:14:00;;;;;;;10.45;6.53;;;;;;;17.74;53.16;100386.50;5068065;28;20052;-63
2021/05/13 09:16:34;;;;;;;12.23;6.43;;;;;;;17.80;52.13;100384.41;5068727;28;20060;-64
2021/05/13 09:19:18;;;;;;;9.82;5.13;;;;;;;17.93;53.35;100378.47;5069573;28;20053;-64
2021/05/13 09:21:51;;;;;;;9.25;4.70;;;;;;;18.05;53.08;100379.56;5062899;28;20048;-64
2021/05/13 09:24:41;;;;;;;7.63;4.20;;;;;;;18.31;52.04;100378.09;5060793;28;20056;-64
2021/05/13 09:27:14;;;;;;;11.20;6.03;;;;;;;18.39;52.23;100375.03;5068823;28;20072;-64
2021/05/13 09:29:41;;;;;;;11.27;5.40;;;;;;;18.50;51.23;100370.00;5065968;28;20583;-63
2021/05/13 09:32:17;;;;;;;7.40;3.90;;;;;;;18.57;48.71;100366.06;5067365;28;20044;-63
2021/05/13 09:34:44;;;;;;;10.23;4.78;;;;;;;18.58;47.59;100373.03;5066787;28;20044;-63
2021/05/13 09:37:10;;;;;;;10.55;3.85;;;;;;;18.73;45.59;100373.03;5068260;28;20053;-62
2021/05/13 09:39:36;;;;;;;9.15;3.72;;;;;;;18.59;44.11;100369.44;5066043;28;20194;-63
2021/05/13 09:42:05;;;;;;;8.60;2.42;;;;;;;18.69;45.91;100375.00;5067067;28;20052;-63
2021/05/13 09:44:36;;;;;;;14.73;3.33;;;;;;;18.77;44.44;100374.56;5064204;28;20502;-64
2021/05/13 09:47:16;;;;;;;8.43;2.58;;;;;;;18.88;40.76;100369.50;5067344;28;20048;-64
2021/05/13 09:50:02;;;;;;;11.27;2.90;;;;;;;18.53;41.82;100374.22;5057272;28;20049;-62
2021/05/13 09:52:57;;;;;;;7.43;3.90;;;;;;;18.22;44.17;100368.94;5065746;28;20158;-64
2021/05/13 09:55:28;;;;;;;8.05;3.70;;;;;;;18.12;42.63;100362.50;5077573;23;20053;-64
2021/05/13 09:58:00;;;;;;;6.75;3.20;;;;;;;18.06;42.92;100363.72;5044247;28;20049;-64
2021/05/13 10:00:45;;;;;;;7.35;3.50;;;;;;;17.98;43.81;100365.91;5042594;28;20642;-64
2021/05/13 10:03:13;;;;;;;7.38;3.00;;;;;;;18.10;46.13;100354.69;5041550;28;20048;-64
2021/05/13 10:05:42;;;;;;;10.25;2.67;;;;;;;18.40;46.28;100361.75;5057055;28;20484;-63
2021/05/13 10:08:08;;;;;;;10.45;2.80;;;;;;;18.48;47.15;100354.25;5060324;28;20053;-64
2021/05/13 10:10:35;;;;;;;7.45;1.83;;;;;;;18.71;46.00;100354.69;5061078;28;20567;-65
2021/05/13 10:13:02;;;;;;;5.55;1.90;;;;;;;19.09;42.46;100359.47;5063736;28;20098;-64
2021/05/13 10:15:28;;;;;;;5.03;2.08;;;;;;;19.09;40.68;100351.56;5060242;28;20399;-64
2021/05/13 10:17:57;;;;;;;8.85;2.10;;;;;;;19.05;39.30;100354.47;5064385;28;20048;-64
2021/05/13 10:20:26;;;;;;;5.53;1.77;;;;;;;18.95;38.80;100351.56;5061216;28;20053;-64
2021/05/13 10:22:54;;;;;;;6.72;1.40;;;;;;;18.89;41.94;100346.63;5062336;28;20040;-64
2021/05/13 10:25:25;;;;;;;11.35;2.60;;;;;;;18.91;42.44;100358.78;5061062;28;20067;-64
2021/05/13 10:27:56;;;;;;;6.85;2.55;;;;;;;18.94;41.00;100350.69;5060225;28;20049;-64
2021/05/13 10:30:25;;;;;;;8.75;1.92;;;;;;;18.94;40.70;100345.44;5060280;28;20056;-62
2021/05/13 10:33:10;;;;;;;5.85;2.08;;;;;;;19.03;41.13;100349.31;5064348;28;20037;-64
2021/05/13 10:35:38;;;;;;;10.98;2.38;;;;;;;19.19;42.70;100336.03;5062276;28;20517;-64
2021/05/13 10:38:10;;;;;;;8.90;3.38;;;;;;;19.16;40.14;100333.56;5062255;28;20056;-64
2021/05/13 10:40:44;;;;;;;5.72;1.98;;;;;;;19.27;43.46;100333.75;5062223;28;20044;-64
2021/05/13 10:43:11;;;;;;;7.55;2.47;;;;;;;19.44;42.51;100321.28;5062179;28;20505;-64
2021/05/13 10:45:46;;;;;;;7.10;2.10;;;;;;;19.55;40.97;100329.38;5061594;28;20051;-65
2021/05/13 10:48:21;;;;;;;7.18;2.35;;;;;;;19.61;36.28;100322.88;5063378;28;20044;-64
2021/05/13 10:50:53;;;;;;;6.72;1.90;;;;;;;19.35;37.89;100316.59;5057168;28;20076;-64
2021/05/13 10:53:37;;;;;;;6.75;2.40;;;;;;;19.26;39.63;100313.59;5063148;28;20059;-64
2021/05/13 10:56:11;;;;;;;8.68;2.67;;;;;;;19.06;38.97;100311.34;5063328;28;20052;-64
2021/05/13 10:58:53;;;;;;;7.60;2.60;;;;;;;18.57;38.14;100313.38;5058649;28;20051;-62
2021/05/13 11:01:41;;;;;;;8.25;2.95;;;;;;;18.38;38.91;100316.22;5058924;28;20053;-64
2021/05/13 11:04:40;;;;;;;7.82;2.33;;;;;;;18.38;38.65;100310.97;5058295;28;20052;-64
2021/05/13 11:07:26;;;;;;;8.70;2.78;;;;;;;18.22;39.46;100304.91;5062213;28;20127;-64
2021/05/13 11:09:54;;;;;;;6.32;2.50;;;;;;;18.34;40.39;100297.13;5060087;28;20052;-65
2021/05/13 11:12:22;;;;;;;7.32;2.63;;;;;;;18.37;40.79;100308.44;5054835;28;20048;-64
2021/05/13 11:15:14;;;;;;;7.75;2.13;;;;;;;18.38;40.47;100299.59;5059414;28;20056;-64
2021/05/13 11:18:07;;;;;;;7.43;2.20;;;;;;;18.55;38.86;100301.25;5058681;28;20127;-64